Погода Заббарна 2 недели

Аура, Мальта

15 - 28 июля
  • 15июля
    Сегодня
    +25°
    +35°
    Ясно и безоблачно
    ВремяПогодаТемператураВлажностьДавлениеВетер, м/сВероятность осадков
    02:00Ясно и безоблачно+27°C74 %756 мм2.1 м/с1 %
    05:00Ясно и безоблачно+26°C89 %756 мм2.0 м/с1 %
    08:00Ясно и безоблачно+30°C78 %757 мм2.5 м/с1 %
    11:00Ясно и безоблачно+34°C49 %757 мм3.5 м/с1 %
    14:00Ясно и безоблачно+35°C50 %757 мм3.5 м/с1 %
    17:00Ясно и безоблачно+34°C52 %756 мм3.8 м/с1 %
    20:00Ясно и безоблачно+30°C64 %756 мм3.4 м/с1 %
    23:00Ясно и безоблачно+28°C73 %757 мм2.6 м/с1 %
  • 16июля
    Вторник
    +25°
    +36°
    Ясно и безоблачно
    ВремяПогодаТемператураВлажностьДавлениеВетер, м/сВероятность осадков
    02:00Ясно и безоблачно+26°C85 %756 мм2.3 м/с1 %
    05:00Ясно и безоблачно+26°C94 %756 мм2.6 м/с1 %
    08:00Ясно и безоблачно+29°C83 %757 мм2.8 м/с1 %
    11:00Ясно и безоблачно+34°C55 %757 мм3.4 м/с1 %
    14:00Ясно и безоблачно+35°C49 %757 мм4.1 м/с1 %
    17:00Ясно и безоблачно+34°C51 %756 мм3.8 м/с1 %
    20:00Ясно и безоблачно+30°C67 %756 мм4.0 м/с1 %
    23:00Ясно и безоблачно+28°C77 %757 мм3.4 м/с1 %
  • 17июля
    Среда
    +25°
    +36°
    Ясно и безоблачно
    ВремяПогодаТемператураВлажностьДавлениеВетер, м/сВероятность осадков
    02:00Ясно и безоблачно+26°C85 %756 мм2.5 м/с1 %
    05:00Ясно и безоблачно+25°C93 %756 мм1.1 м/с1 %
    08:00Ясно и безоблачно+29°C78 %757 мм2.1 м/с1 %
    11:00Ясно и безоблачно+34°C48 %758 мм3.8 м/с1 %
    14:00Ясно и безоблачно+35°C40 %758 мм3.7 м/с1 %
    17:00Ясно и безоблачно+35°C44 %758 мм3.4 м/с1 %
    20:00Ясно и безоблачно+31°C60 %758 мм2.6 м/с1 %
    23:00Ясно и безоблачно+28°C71 %758 мм1.9 м/с1 %
  • 18июля
    Четверг
    +25°
    +36°
    Ясно и безоблачно
    ВремяПогодаТемператураВлажностьДавлениеВетер, м/сВероятность осадков
    02:00Ясно и безоблачно+27°C80 %757 мм1.9 м/с1 %
    05:00Ясно и безоблачно+26°C89 %757 мм2.1 м/с1 %
    08:00Ясно и безоблачно+30°C76 %758 мм2.0 м/с1 %
    11:00Ясно и безоблачно+34°C43 %759 мм2.7 м/с1 %
    14:00Ясно и безоблачно+35°C42 %759 мм3.2 м/с1 %
    17:00Ясно и безоблачно+35°C41 %758 мм3.4 м/с1 %
    20:00Ясно и безоблачно+31°C51 %758 мм2.4 м/с1 %
    23:00Ясно и безоблачно+28°C80 %758 мм2.8 м/с1 %
  • 19июля
    Пятница
    +26°
    +35°
    Ясно и безоблачно
    ВремяПогодаТемператураВлажностьДавлениеВетер, м/сВероятность осадков
    02:00Ясно и безоблачно+27°C88 %757 мм1.9 м/с2 %
    05:00Ясно и безоблачно+26°C91 %757 мм2.0 м/с2 %
    08:00Ясно и безоблачно+30°C80 %757 мм2.5 м/с2 %
    11:00Ясно и безоблачно+34°C43 %758 мм3.6 м/с2 %
    14:00Ясно и безоблачно+35°C40 %757 мм3.5 м/с2 %
    17:00Ясно и безоблачно+35°C48 %756 мм3.5 м/с2 %
    20:00Ясно и безоблачно+31°C62 %756 мм3.4 м/с2 %
    23:00Ясно и безоблачно+29°C66 %757 мм3.0 м/с2 %
Мы используем cookies
Соглашаюсь